Time;durP1;ratioP1;P1;durP2;ratioP2;P2;SDS_P1;SDS_P2;PMS_P1;PMS_P2;Temp;Humidity;BMP_temperature;BMP_pressure;BME280_temperature;BME280_humidity;BME280_pressure;Samples;Min_cycle;Max_cycle;Signal;HPM_P1;HPM_P2
2022/12/30 00:00:49;;;;;;;117.07;55.43;;;8.20;99.90;;;8.20;66.90;95738.03;4979740;28;20852;-58
2022/12/30 00:03:16;;;;;;;113.10;53.87;;;8.20;99.90;;;8.22;67.01;95730.88;4979934;28;20474;-55
2022/12/30 00:05:44;;;;;;;103.87;53.70;;;8.20;99.90;;;8.25;67.44;95738.53;4983069;28;20511;-57
2022/12/30 00:10:52;;;;;;;119.87;56.40;;;8.30;99.90;;;8.31;67.04;95741.72;4982085;28;21107;-57
2022/12/30 00:35:21;;;;;;;115.03;55.10;;;8.40;99.90;;;8.39;67.23;95755.13;4974645;28;20599;-57
2022/12/30 00:37:48;;;;;;;108.10;56.77;;;8.40;99.90;;;8.38;67.42;95756.91;4977754;28;20476;-56
2022/12/30 00:40:16;;;;;;;101.33;55.90;;;8.40;99.90;;;8.38;66.85;95767.41;4980864;28;20971;-56
2022/12/30 00:45:28;;;;;;;139.93;60.57;;;8.40;99.90;;;8.35;67.20;95758.88;4975344;28;20807;-53
2022/12/30 00:47:56;;;;;;;135.60;59.40;;;8.40;99.90;;;8.35;66.48;95756.25;4980493;28;20529;-55
2022/12/30 00:56:12;;;;;;;113.07;57.87;;;8.40;99.90;;;8.30;66.87;95755.75;4982434;28;20505;-55
2022/12/30 00:58:39;;;;;;;111.80;56.80;;;8.40;99.90;;;8.29;67.11;95754.06;4977758;28;20478;-58
2022/12/30 01:01:06;;;;;;;117.50;56.97;;;8.30;99.90;;;8.27;67.21;95754.16;4978572;28;20469;-56
2022/12/30 01:03:35;;;;;;;111.67;57.50;;;8.30;99.90;;;8.25;66.80;95759.50;4981562;28;20478;-56
2022/12/30 01:06:06;;;;;;;122.00;58.20;;;8.30;99.90;;;8.26;67.04;95760.38;4979239;28;20447;-56
2022/12/30 01:08:33;;;;;;;132.40;59.53;;;8.30;99.90;;;8.25;67.09;95761.31;4975403;28;20562;-59
2022/12/30 01:11:05;;;;;;;118.17;57.07;;;8.30;99.90;;;8.24;66.96;95762.22;4977276;28;20488;-56
2022/12/30 01:13:33;;;;;;;123.23;57.90;;;8.30;99.90;;;8.20;66.92;95760.78;4977761;28;20500;-55
2022/12/30 01:16:08;;;;;;;108.70;56.30;;;8.30;99.90;;;8.18;66.80;95760.88;4977994;28;20455;-55
2022/12/30 01:18:37;;;;;;;120.13;59.13;;;8.20;99.90;;;8.16;66.99;95762.75;4978433;28;20505;-55
2022/12/30 01:21:05;;;;;;;121.23;56.00;;;8.20;99.90;;;8.14;67.10;95758.56;4980582;28;20884;-56
2022/12/30 01:23:32;;;;;;;119.33;56.67;;;8.20;99.90;;;8.13;66.87;95746.41;4981748;28;20529;-55
2022/12/30 01:26:01;;;;;;;114.53;58.30;;;8.20;99.90;;;8.12;67.15;95744.72;4978947;28;20458;-58
2022/12/30 01:28:31;;;;;;;108.23;56.27;;;8.20;99.90;;;8.11;67.31;95743.06;4976867;28;20545;-57
2022/12/30 01:30:59;;;;;;;111.63;53.63;;;8.20;99.90;;;8.11;66.86;95743.06;4975087;28;20846;-54
2022/12/30 01:33:26;;;;;;;114.37;53.70;;;8.20;99.90;;;8.09;67.19;95745.78;4977984;28;20533;-58
2022/12/30 01:35:55;;;;;;;99.47;52.23;;;8.10;99.90;;;8.08;67.40;95739.69;4975580;28;20999;-57
2022/12/30 01:38:22;;;;;;;93.30;49.20;;;8.10;99.90;;;8.07;67.61;95731.91;4978733;28;20479;-58
2022/12/30 01:40:49;;;;;;;100.30;51.97;;;8.10;99.90;;;8.05;66.92;95733.81;4982998;28;20979;-56
2022/12/30 01:43:18;;;;;;;100.73;50.73;;;8.10;99.90;;;8.05;67.09;95728.56;4983354;28;20505;-56
2022/12/30 01:45:46;;;;;;;102.23;47.93;;;8.10;99.90;;;8.04;67.25;95732.13;4981560;28;20455;-53
2022/12/30 01:48:20;;;;;;;96.03;49.03;;;8.10;99.90;;;8.01;67.83;95732.34;4977738;28;20473;-57
2022/12/30 01:50:49;;;;;;;101.53;52.53;;;8.10;99.90;;;7.99;67.51;95734.22;4979045;28;20844;-57
2022/12/30 01:53:20;;;;;;;98.27;47.57;;;8.00;99.90;;;7.99;67.34;95736.84;4979286;28;20475;-56
2022/12/30 01:55:49;;;;;;;97.30;49.67;;;8.00;99.90;;;7.97;67.53;95730.88;4977068;28;20447;-55
2022/12/30 01:58:20;;;;;;;106.73;51.30;;;8.00;99.90;;;7.97;67.52;95736.13;4977798;28;20542;-59
2022/12/30 02:00:47;;;;;;;117.17;51.83;;;8.00;99.90;;;7.98;67.56;95737.78;4978547;28;20451;-56
2022/12/30 02:03:14;;;;;;;113.83;52.57;;;8.00;99.90;;;7.97;67.22;95729.09;4982030;28;20979;-54
2022/12/30 02:05:42;;;;;;;115.70;53.10;;;8.00;99.90;;;7.96;67.64;95730.03;4980305;28;20496;-54
2022/12/30 02:08:12;;;;;;;117.90;54.17;;;8.00;99.90;;;7.95;67.28;95723.13;4979745;28;20489;-58
2022/12/30 02:10:42;;;;;;;101.40;51.40;;;8.00;99.90;;;7.96;67.23;95731.81;4976653;28;20490;-55
2022/12/30 02:13:12;;;;;;;105.70;50.57;;;8.00;99.90;;;7.94;67.58;95725.84;4974104;28;20494;-56
2022/12/30 02:15:54;;;;;;;104.00;49.07;;;8.00;99.90;;;7.93;67.47;95721.53;4976455;28;20545;-56
2022/12/30 02:18:27;;;;;;;104.17;48.20;;;8.00;99.90;;;7.92;67.91;95722.47;4976793;28;20534;-55
2022/12/30 02:21:48;;;;;;;98.87;51.73;;;8.00;99.90;;;7.91;67.58;95726.88;4979164;28;21978;-57
2022/12/30 02:25:12;;;;;;;100.80;51.10;;;7.90;99.90;;;7.88;67.60;95725.31;4979206;28;20458;-55
2022/12/30 02:28:27;;;;;;;103.13;50.80;;;7.90;99.90;;;7.83;67.40;95722.16;4948070;28;20986;-55
2022/12/30 02:31:17;;;;;;;99.70;46.73;;;7.90;99.90;;;7.79;67.56;95728.56;4977377;28;20487;-53
2022/12/30 02:33:48;;;;;;;86.77;46.80;;;7.90;99.90;;;7.79;67.87;95725.06;4976954;28;20483;-55
2022/12/30 02:36:20;;;;;;;84.57;46.50;;;7.90;99.90;;;7.77;67.79;95721.72;4978560;28;20533;-55
2022/12/30 02:38:50;;;;;;;88.60;44.80;;;7.80;99.90;;;7.75;67.79;95731.47;4973325;28;20611;-58
2022/12/30 02:46:56;;;;;;;95.77;44.20;;;7.80;99.90;;;7.68;68.29;95726.63;4984935;28;20494;-57
2022/12/30 02:49:23;;;;;;;96.80;48.07;;;7.80;99.90;;;7.67;67.50;95724.13;4983533;28;20446;-58
2022/12/30 02:54:35;;;;;;;76.80;43.93;;;7.70;99.90;;;7.56;67.57;95710.88;4978734;28;20442;-54
2022/12/30 02:57:02;;;;;;;92.50;45.57;;;7.60;99.90;;;7.52;67.48;95726.78;4978457;28;20466;-55
2022/12/30 03:05:27;;;;;;;78.60;41.60;;;7.50;99.90;;;7.39;67.51;95728.53;4977223;28;20497;-55
2022/12/30 03:07:57;;;;;;;76.93;43.67;;;7.50;99.90;;;7.36;67.79;95726.13;4980846;28;20524;-56
2022/12/30 03:13:19;;;;;;;83.30;44.20;;;7.40;99.90;;;7.25;67.68;95733.78;4982422;28;20466;-56
2022/12/30 03:15:49;;;;;;;84.43;43.37;;;7.30;99.90;;;7.21;67.47;95733.16;4982300;28;20970;-56
2022/12/30 03:18:18;;;;;;;87.83;43.57;;;7.30;99.90;;;7.18;67.69;95738.59;4981537;28;20500;-58
2022/12/30 03:20:45;;;;;;;80.17;44.40;;;7.30;99.90;;;7.13;67.68;95731.03;4977896;28;20458;-54
2022/12/30 03:28:42;;;;;;;76.10;42.93;;;7.20;99.90;;;7.05;67.79;95732.44;4980157;28;20477;-55
2022/12/30 03:31:12;;;;;;;77.97;44.60;;;7.10;99.90;;;7.02;68.21;95740.50;4975662;28;20498;-57
2022/12/30 03:33:41;;;;;;;84.97;43.43;;;7.10;99.90;;;6.98;67.85;95732.84;4982782;28;20478;-57
2022/12/30 03:36:12;;;;;;;89.70;46.33;;;7.10;99.90;;;6.95;68.28;95727.78;4982284;28;20478;-58
2022/12/30 03:38:40;;;;;;;82.27;42.73;;;7.10;99.90;;;6.92;68.59;95743.69;4980749;28;20825;-57
2022/12/30 03:41:08;;;;;;;87.80;45.23;;;7.00;99.90;;;6.88;69.07;95736.13;4981589;28;20451;-57
2022/12/30 03:43:36;;;;;;;88.43;44.90;;;7.00;99.90;;;6.86;68.46;95738.00;4986259;28;20474;-54
2022/12/30 03:46:03;;;;;;;83.73;45.13;;;7.00;99.90;;;6.84;67.92;95739.88;4984061;28;21123;-55
2022/12/30 03:48:30;;;;;;;82.70;42.30;;;7.00;99.90;;;6.80;68.29;95734.84;4979891;28;20482;-55
2022/12/30 03:50:59;;;;;;;100.83;45.23;;;6.90;99.90;;;6.80;68.51;95745.31;4981426;28;20486;-55
2022/12/30 03:53:26;;;;;;;90.53;45.20;;;6.90;99.90;;;6.78;68.62;95741.09;4981023;28;20562;-55
2022/12/30 03:55:54;;;;;;;89.53;44.90;;;6.90;99.90;;;6.74;68.23;95732.59;4981309;28;20982;-57
2022/12/30 03:58:21;;;;;;;79.50;44.13;;;6.80;99.90;;;6.73;68.92;95738.75;4980296;28;20530;-58
2022/12/30 04:00:50;;;;;;;89.70;44.03;;;6.80;99.90;;;6.71;68.94;95745.00;4980992;28;20455;-56
2022/12/30 04:03:17;;;;;;;81.20;43.83;;;6.80;99.90;;;6.67;68.68;95744.38;4984134;28;20574;-56
2022/12/30 04:05:45;;;;;;;86.70;44.93;;;6.80;99.90;;;6.67;68.92;95754.81;4981547;28;20884;-59
2022/12/30 04:08:14;;;;;;;81.60;46.17;;;6.80;99.90;;;6.66;69.06;95758.34;4981882;28;21068;-58
2022/12/30 04:10:41;;;;;;;96.50;49.07;;;6.80;99.90;;;6.62;68.55;95762.13;4979267;28;20490;-57
2022/12/30 04:13:08;;;;;;;94.93;47.07;;;6.70;99.90;;;6.58;68.98;95760.63;4977548;28;20485;-55
2022/12/30 04:15:35;;;;;;;100.43;47.90;;;6.70;99.90;;;6.56;69.42;95767.72;4977691;28;20458;-58
2022/12/30 04:18:03;;;;;;;90.80;47.27;;;6.70;99.90;;;6.54;69.08;95759.97;4977010;28;20481;-55
2022/12/30 04:20:30;;;;;;;94.03;48.17;;;6.60;99.90;;;6.53;69.40;95765.28;4980537;28;20463;-55
2022/12/30 04:22:58;;;;;;;105.07;49.47;;;6.70;99.90;;;6.51;69.18;95760.16;4980965;28;20479;-56
2022/12/30 04:25:26;;;;;;;100.80;50.53;;;6.60;99.90;;;6.50;68.55;95768.09;4982713;28;20451;-55
2022/12/30 04:27:54;;;;;;;93.50;45.23;;;6.60;99.90;;;6.46;69.31;95763.03;4975360;28;21015;-54
2022/12/30 04:30:21;;;;;;;90.50;48.90;;;6.60;99.90;;;6.48;69.07;95775.19;4982712;28;20486;-59
2022/12/30 04:32:48;;;;;;;92.80;48.03;;;6.60;99.90;;;6.45;68.86;95766.59;4976445;28;20557;-56
2022/12/30 04:35:16;;;;;;;88.30;46.53;;;6.60;99.90;;;6.43;69.36;95765.84;4977890;28;20514;-58
2022/12/30 04:37:43;;;;;;;87.70;48.67;;;6.60;99.90;;;6.42;68.79;95766.75;4975336;28;20475;-56
2022/12/30 04:40:11;;;;;;;95.33;46.97;;;6.60;99.90;;;6.38;69.14;95770.50;4979992;28;20456;-57
2022/12/30 04:42:39;;;;;;;90.87;46.57;;;6.50;99.90;;;6.37;68.73;95778.44;4980973;28;20494;-58
2022/12/30 04:45:09;;;;;;;131.00;56.17;;;6.50;99.90;;;6.32;69.53;95776.09;4983110;28;20439;-56
2022/12/30 04:47:36;;;;;;;105.00;57.10;;;6.40;99.90;;;6.26;69.03;95779.91;4981775;28;20513;-57
2022/12/30 04:50:04;;;;;;;108.97;55.37;;;6.40;99.90;;;6.18;68.83;95781.28;4975998;28;20528;-56
2022/12/30 04:52:31;;;;;;;108.97;55.57;;;6.40;99.90;;;6.10;68.71;95785.22;4983787;28;20483;-54
2022/12/30 04:54:58;;;;;;;123.93;54.00;;;6.30;99.90;;;6.05;69.29;95783.78;4977349;28;20913;-56
2022/12/30 04:57:25;;;;;;;109.83;53.97;;;6.20;99.90;;;5.99;69.51;95781.53;4977138;28;20475;-58
2022/12/30 04:59:54;;;;;;;106.93;53.77;;;6.10;99.90;;;5.93;69.65;95785.28;4979136;28;20462;-56
2022/12/30 05:02:21;;;;;;;108.37;51.60;;;6.10;99.90;;;5.91;69.39;95792.38;4976722;28;20907;-56
2022/12/30 05:04:49;;;;;;;103.63;54.73;;;6.10;99.90;;;5.90;69.25;95795.91;4978611;28;20517;-54
2022/12/30 05:07:17;;;;;;;110.13;52.60;;;6.00;99.90;;;5.88;69.40;95797.78;4976083;28;20538;-56
2022/12/30 05:09:44;;;;;;;107.70;55.00;;;6.00;99.90;;;5.87;69.71;95796.09;4982012;28;20459;-54
2022/12/30 05:12:12;;;;;;;114.03;56.20;;;6.00;99.90;;;5.87;69.74;95798.69;4977902;28;20494;-56
2022/12/30 05:14:39;;;;;;;104.83;52.00;;;6.00;99.90;;;5.85;69.52;95798.78;4977844;28;20534;-56
2022/12/30 05:17:07;;;;;;;123.03;54.03;;;6.00;99.90;;;5.84;69.97;95804.97;4974262;28;20480;-55
2022/12/30 05:19:35;;;;;;;102.13;50.73;;;6.00;99.90;;;5.85;69.99;95811.00;4979056;28;20501;-59
2022/12/30 05:22:02;;;;;;;101.03;54.80;;;6.00;99.90;;;5.83;69.80;95807.66;4979130;28;20914;-57
2022/12/30 05:27:14;;;;;;;122.40;52.00;;;5.90;99.90;;;5.81;69.66;95806.88;4976474;28;20532;-55
2022/12/30 05:29:41;;;;;;;95.23;43.00;;;5.90;99.90;;;5.78;69.84;95801.84;4976079;28;20456;-55
2022/12/30 05:32:10;;;;;;;96.13;43.20;;;5.90;99.90;;;5.79;70.27;95808.75;4981268;28;20494;-57
2022/12/30 05:34:37;;;;;;;98.50;46.20;;;5.90;99.90;;;5.79;69.85;95813.97;4979729;28;20461;-60
2022/12/30 05:37:04;;;;;;;87.83;44.53;;;5.90;99.90;;;5.80;69.68;95810.44;4977841;28;21043;-55
2022/12/30 05:39:31;;;;;;;109.83;48.67;;;5.90;99.90;;;5.80;69.97;95810.44;4975760;28;20526;-55
2022/12/30 05:41:59;;;;;;;105.83;50.80;;;5.90;99.90;;;5.80;69.51;95815.66;4983508;28;20505;-57
2022/12/30 05:44:26;;;;;;;98.03;48.87;;;5.90;99.90;;;5.79;69.44;95813.97;4977499;28;20455;-56
2022/12/30 05:46:53;;;;;;;113.73;54.00;;;5.90;99.90;;;5.79;69.71;95819.19;4979877;28;20546;-55
2022/12/30 05:49:22;;;;;;;97.83;49.83;;;5.90;99.90;;;5.79;70.05;95820.03;4978460;28;20470;-57
2022/12/30 05:51:49;;;;;;;109.43;50.57;;;6.00;99.90;;;5.80;69.54;95820.88;4979605;28;20914;-57
2022/12/30 05:54:17;;;;;;;98.57;50.13;;;5.90;99.90;;;5.80;69.86;95826.09;4979884;28;20451;-55
2022/12/30 05:56:44;;;;;;;109.27;49.27;;;5.90;99.90;;;5.80;69.80;95826.09;4983697;28;20454;-58
2022/12/30 05:59:11;;;;;;;90.10;47.30;;;5.90;99.90;;;5.81;69.85;95818.19;4979821;28;20466;-57
2022/12/30 06:01:39;;;;;;;102.53;48.67;;;6.00;99.90;;;5.80;69.94;95829.53;4979129;28;21387;-55
2022/12/30 06:04:06;;;;;;;95.93;48.30;;;5.90;99.90;;;5.81;69.62;95830.38;4981415;28;20450;-56
2022/12/30 06:06:35;;;;;;;85.53;45.20;;;5.90;99.90;;;5.78;69.28;95831.41;4976636;28;20454;-58
2022/12/30 06:09:02;;;;;;;84.07;44.80;;;6.00;99.90;;;5.78;69.87;95825.34;4977271;28;20475;-57
2022/12/30 06:11:29;;;;;;;93.90;46.13;;;5.90;99.90;;;5.77;69.94;95829.72;4974537;28;20581;-56
2022/12/30 06:13:57;;;;;;;191.00;87.70;;;5.90;99.90;;;5.78;69.33;95826.19;4979573;28;20474;-56
2022/12/30 06:16:24;;;;;;;126.07;59.03;;;5.90;99.90;;;5.79;69.41;95835.69;4981735;28;20456;-55
2022/12/30 06:18:51;;;;;;;105.73;50.63;;;5.90;99.90;;;5.81;69.26;95828.63;4982655;28;21096;-57
2022/12/30 06:21:19;;;;;;;93.63;47.20;;;5.90;99.90;;;5.82;69.56;95838.13;4982119;28;20987;-56
2022/12/30 06:23:47;;;;;;;114.13;53.03;;;5.90;99.90;;;5.85;69.20;95834.50;4985407;28;20478;-55
2022/12/30 06:26:15;;;;;;;152.00;63.90;;;6.00;99.90;;;5.87;68.75;95833.50;4979967;28;21066;-56
2022/12/30 06:28:42;;;;;;;119.07;52.20;;;6.00;99.90;;;5.91;69.21;95840.22;4981556;28;20481;-55
2022/12/30 06:31:09;;;;;;;110.03;52.70;;;6.00;99.90;;;5.99;69.44;95833.75;4979376;28;20513;-57
2022/12/30 06:33:37;;;;;;;111.13;51.23;;;6.10;99.90;;;6.08;69.13;95839.28;4981385;28;20506;-57
2022/12/30 06:36:04;;;;;;;123.30;56.40;;;6.20;99.90;;;6.13;68.58;95832.97;4978458;28;20458;-56
2022/12/30 06:38:32;;;;;;;108.97;52.13;;;6.30;99.90;;;6.19;68.84;95846.50;4982985;28;20533;-56
2022/12/30 06:41:00;;;;;;;106.60;50.80;;;6.30;99.90;;;6.30;68.19;95838.03;4981985;28;20525;-55
2022/12/30 06:43:27;;;;;;;101.20;49.50;;;6.50;99.90;;;6.42;68.04;95845.16;4985510;28;20494;-57
2022/12/30 06:45:55;;;;;;;101.70;47.33;;;6.60;99.90;;;6.51;68.02;95843.78;4983488;28;20455;-56
2022/12/30 06:48:23;;;;;;;94.47;46.30;;;6.70;99.90;;;6.68;67.94;95845.41;4982823;28;20477;-56
2022/12/30 06:50:50;;;;;;;88.70;45.47;;;6.80;99.90;;;6.98;67.43;95844.47;4981847;28;20602;-57
2022/12/30 06:53:17;;;;;;;87.87;38.63;;;7.10;99.90;;;7.38;66.72;95843.78;4981079;28;20904;-56
2022/12/30 06:55:44;;;;;;;71.37;36.30;;;7.50;99.90;;;7.80;66.19;95850.69;4981972;28;20973;-54
2022/12/30 06:58:13;;;;;;;69.47;37.60;;;8.00;99.90;;;8.22;65.04;95853.22;4976243;28;20551;-55
2022/12/30 07:00:40;;;;;;;76.07;39.23;;;8.40;99.90;;;8.63;64.55;95844.44;4981656;28;20454;-54
2022/12/30 07:03:07;;;;;;;75.07;42.50;;;8.90;99.90;;;9.05;63.78;95857.34;4980985;28;20533;-56
2022/12/30 07:05:35;;;;;;;86.27;43.30;;;9.30;99.90;;;9.47;63.09;95847.41;4983389;28;20959;-56
2022/12/30 07:08:02;;;;;;;109.50;56.50;;;9.70;99.60;;;9.78;62.14;95853.09;4984352;28;20512;-56
2022/12/30 07:10:29;;;;;;;119.00;59.53;;;9.90;98.90;;;9.95;61.36;95857.13;4979791;28;20476;-55
2022/12/30 07:12:56;;;;;;;132.97;57.77;;;10.10;97.60;;;10.19;60.50;95851.84;4978412;28;20495;-55
2022/12/30 07:15:25;;;;;;;128.37;62.03;;;10.30;97.30;;;10.54;59.89;95856.31;4981620;28;20451;-55
2022/12/30 07:17:52;;;;;;;131.37;62.37;;;10.60;96.90;;;10.89;59.64;95850.16;4978034;28;20471;-53
2022/12/30 07:20:19;;;;;;;123.23;62.67;;;11.00;96.70;;;11.24;59.03;95847.44;4979572;28;20463;-55
2022/12/30 07:22:47;;;;;;;120.00;60.97;;;11.30;96.30;;;11.51;58.28;95848.88;4980703;28;20471;-54
2022/12/30 07:25:14;;;;;;;119.70;56.43;;;11.70;95.30;;;11.77;58.24;95862.63;4980717;28;20462;-55
2022/12/30 07:27:41;;;;;;;120.90;59.03;;;12.00;95.40;;;12.01;57.30;95864.28;4985220;28;20481;-55
2022/12/30 07:30:10;;;;;;;116.80;62.27;;;12.30;94.50;;;12.28;56.50;95861.16;4982895;28;20778;-56
2022/12/30 07:32:38;;;;;;;107.37;60.63;;;12.50;93.90;;;12.53;56.15;95869.69;4978658;28;20974;-56
2022/12/30 07:35:08;;;;;;;102.20;57.50;;;12.80;93.60;;;12.74;55.32;95870.56;4978816;28;20455;-57
2022/12/30 07:37:35;;;;;;;116.93;63.17;;;13.00;92.40;;;12.91;54.37;95863.84;4979145;28;20552;-55
2022/12/30 07:40:02;;;;;;;123.10;61.83;;;13.20;91.90;;;13.16;54.69;95860.94;4978151;28;20460;-56
2022/12/30 07:42:30;;;;;;;125.07;63.00;;;13.50;91.90;;;13.39;54.34;95865.13;4983375;28;20482;-56
2022/12/30 07:44:57;;;;;;;117.43;62.50;;;13.70;91.80;;;13.65;53.72;95858.53;4979184;28;21307;-57
2022/12/30 07:47:24;;;;;;;122.97;62.80;;;13.90;91.30;;;13.88;52.74;95867.06;4982134;28;20482;-58
2022/12/30 07:49:53;;;;;;;109.37;58.40;;;14.10;90.50;;;14.10;52.20;95876.63;4980776;28;20479;-56
2022/12/30 07:52:20;;;;;;;106.30;60.17;;;14.30;89.50;;;14.31;51.82;95884.41;4981701;28;20527;-56
2022/12/30 07:54:47;;;;;;;108.63;56.00;;;14.50;88.60;;;14.51;51.60;95869.38;4984172;28;20482;-56
2022/12/30 07:57:15;;;;;;;103.67;55.87;;;14.60;87.30;;;14.72;51.09;95876.38;4977258;28;20567;-56
2022/12/30 07:59:42;;;;;;;108.63;58.77;;;14.80;86.90;;;14.90;50.78;95866.72;4981436;28;20513;-56
2022/12/30 08:02:10;;;;;;;106.87;57.80;;;14.90;86.20;;;15.05;50.59;95864.47;4978901;28;20536;-56
2022/12/30 08:04:37;;;;;;;112.07;57.63;;;15.00;85.90;;;15.20;50.37;95871.00;4981985;28;20971;-55
2022/12/30 08:07:05;;;;;;;114.53;59.77;;;15.10;85.00;;;15.35;49.82;95862.59;4977187;28;20490;-56
2022/12/30 08:09:33;;;;;;;114.80;61.27;;;15.20;83.80;;;15.48;49.50;95856.97;4978707;28;20959;-55
2022/12/30 08:12:00;;;;;;;117.00;65.43;;;15.30;83.10;;;15.59;49.13;95860.25;4979710;28;20916;-56
2022/12/30 08:14:27;;;;;;;121.47;63.77;;;15.40;82.30;;;15.73;49.05;95861.59;4980419;28;20566;-57
2022/12/30 08:16:54;;;;;;;137.23;69.63;;;15.50;82.10;;;15.87;48.62;95857.63;4982582;28;20466;-57
2022/12/30 08:19:22;;;;;;;128.37;67.77;;;15.70;80.90;;;16.02;47.92;95865.94;4976993;28;20458;-56
2022/12/30 08:21:49;;;;;;;125.17;69.50;;;15.80;80.10;;;16.13;47.81;95871.03;4978998;28;20447;-54
2022/12/30 08:24:18;;;;;;;126.47;70.57;;;15.90;78.70;;;16.28;47.60;95867.84;4981076;28;20541;-55
2022/12/30 08:26:45;;;;;;;133.77;71.17;;;16.00;77.90;;;16.40;47.26;95861.34;4978935;28;20446;-54
2022/12/30 08:29:12;;;;;;;123.40;68.10;;;16.20;77.40;;;16.46;46.86;95858.06;4974157;28;20455;-57
2022/12/30 08:31:39;;;;;;;113.00;69.03;;;16.30;75.70;;;16.49;46.65;95860.44;4977582;28;20507;-57
2022/12/30 08:34:07;;;;;;;131.23;72.37;;;16.30;75.20;;;16.55;46.48;95860.84;4978267;28;20581;-61
2022/12/30 08:36:34;;;;;;;128.37;71.00;;;16.40;74.50;;;16.65;46.22;95862.41;4982977;28;20473;-57
2022/12/30 08:39:02;;;;;;;116.53;67.57;;;16.40;73.50;;;16.76;45.75;95863.16;4979883;28;20478;-57
2022/12/30 08:41:33;;;;;;;118.43;67.97;;;16.50;73.50;;;16.78;45.72;95862.03;4979824;28;20482;-57
2022/12/30 08:44:00;;;;;;;111.23;65.33;;;16.60;72.00;;;16.64;45.66;95866.06;4980385;28;20482;-54
2022/12/30 08:46:30;;;;;;;111.80;61.80;;;16.50;71.80;;;16.40;45.31;95864.00;4982645;28;20972;-56
2022/12/30 08:48:57;;;;;;;113.80;61.20;;;16.30;71.00;;;16.08;45.93;95857.38;4976990;28;20522;-57
2022/12/30 08:51:24;;;;;;;107.97;62.87;;;16.00;70.90;;;15.74;46.44;95865.91;4981595;28;20820;-55
2022/12/30 08:53:52;;;;;;;117.60;58.50;;;15.80;71.00;;;15.60;47.10;95859.28;4977804;28;20991;-57
2022/12/30 08:56:20;;;;;;;114.90;58.47;;;15.50;72.50;;;15.62;47.01;95858.31;4977037;28;20443;-56
2022/12/30 08:58:49;;;;;;;110.20;59.40;;;15.50;73.40;;;15.65;44.61;95856.19;4982194;28;20478;-57
2022/12/30 09:01:19;;;;;;;107.20;59.43;;;15.40;68.70;;;15.63;46.48;95866.13;4979542;28;20459;-58
2022/12/30 09:03:47;;;;;;;115.53;60.33;;;15.40;72.20;;;15.66;46.81;95860.53;4984398;28;20570;-57
2022/12/30 09:06:14;;;;;;;120.33;64.20;;;15.40;72.80;;;15.76;45.97;95856.00;4984610;28;20529;-56
2022/12/30 09:08:42;;;;;;;117.80;62.43;;;15.50;71.10;;;15.89;46.52;95860.16;4975357;28;20633;-57
2022/12/30 09:11:10;;;;;;;119.00;59.87;;;15.60;72.70;;;16.10;46.40;95858.06;4978024;28;20443;-59
2022/12/30 09:13:38;;;;;;;114.40;62.07;;;15.80;72.70;;;16.35;46.38;95854.84;4978913;28;20494;-55
2022/12/30 09:16:08;;;;;;;117.77;63.83;;;16.00;72.50;;;16.54;46.05;95856.50;4975982;28;20454;-54
2022/12/30 09:18:36;;;;;;;109.77;61.03;;;16.20;72.10;;;16.77;45.96;95848.88;4973674;28;21009;-56
2022/12/30 09:21:03;;;;;;;113.73;61.10;;;16.40;72.10;;;17.03;45.43;95844.47;4979826;28;20509;-56
2022/12/30 09:23:31;;;;;;;111.30;64.80;;;16.70;71.40;;;17.32;44.28;95850.44;4978920;28;20483;-57
2022/12/30 09:25:58;;;;;;;106.97;61.20;;;16.90;69.50;;;17.52;44.29;95849.25;4982935;28;20458;-54
2022/12/30 09:28:25;;;;;;;105.50;57.37;;;17.20;68.90;;;17.74;43.57;95847.00;4980576;28;20471;-56
2022/12/30 09:30:53;;;;;;;95.30;54.80;;;17.40;68.50;;;17.97;43.71;95849.97;4975703;28;20467;-57
2022/12/30 09:33:21;;;;;;;97.30;51.17;;;17.60;68.50;;;18.18;43.44;95838.84;4976032;28;20497;-55
2022/12/30 09:35:49;;;;;;;91.87;53.77;;;17.80;67.60;;;18.33;43.01;95835.56;4973182;28;20482;-56
2022/12/30 09:38:16;;;;;;;91.00;52.17;;;18.00;67.20;;;18.44;42.84;95843.22;4976122;28;21088;-57
2022/12/30 09:40:55;;;;;;;79.10;47.33;;;18.10;66.50;;;18.55;42.76;95850.91;4978473;28;20454;-56
2022/12/30 09:43:28;;;;;;;76.63;43.43;;;18.30;65.40;;;18.74;42.08;95836.41;4977527;28;20573;-56
2022/12/30 09:46:31;;;;;;;63.40;41.57;;;18.40;64.40;;;19.10;40.99;95829.91;4982181;28;20450;-56
2022/12/30 09:49:02;;;;;;;64.60;40.60;;;18.70;64.50;;;19.40;41.56;95811.53;4977642;28;20546;-58
2022/12/30 09:51:31;;;;;;;66.23;41.40;;;19.00;64.50;;;19.64;41.34;95816.78;4984784;28;20462;-56
2022/12/30 09:54:02;;;;;;;69.87;43.77;;;19.20;63.60;;;19.89;40.86;95816.69;4981253;28;20613;-58
2022/12/30 09:56:31;;;;;;;77.47;42.70;;;19.50;63.00;;;20.08;40.51;95817.25;4978862;28;20451;-56
2022/12/30 09:59:04;;;;;;;60.27;35.93;;;19.60;61.90;;;20.17;40.06;95802.84;4980130;28;21395;-57
2022/12/30 10:01:34;;;;;;;51.57;32.57;;;19.80;59.70;;;20.30;39.92;95796.94;4981386;28;20489;-65
2022/12/30 10:04:03;;;;;;;46.40;30.67;;;19.90;59.80;;;20.44;38.25;95792.66;4981430;28;20475;-58
2022/12/30 10:06:33;;;;;;;60.23;35.00;;;20.10;57.60;;;20.57;39.14;95796.41;4983727;28;21029;-57
2022/12/30 10:09:43;;;;;;;58.47;33.20;;;20.20;58.80;;;20.87;38.63;95788.47;4982590;28;20556;-58
2022/12/30 10:12:38;;;;;;;48.90;31.80;;;20.40;58.90;;;21.24;38.28;95793.97;4983265;28;21007;-58
2022/12/30 10:15:22;;;;;;;51.00;31.90;;;20.80;58.40;;;21.64;37.80;95790.03;4980784;28;20469;-58
2022/12/30 10:18:29;;;;;;;44.37;28.47;;;21.10;58.10;;;21.93;34.38;95792.84;4977914;28;20481;-56
2022/12/30 10:21:12;;;;;;;42.03;26.60;;;21.50;53.10;;;22.01;36.51;95784.69;4980586;28;20528;-58
2022/12/30 10:23:51;;;;;;;50.23;27.83;;;21.60;55.50;;;22.25;36.64;95780.03;4979175;28;20522;-57
2022/12/30 10:26:22;;;;;;;37.33;28.23;;;21.80;55.80;;;22.54;35.76;95771.03;4976924;28;20505;-54
2022/12/30 10:28:53;;;;;;;42.47;28.43;;;22.00;54.20;;;22.60;34.87;95775.63;4982215;28;20466;-55
2022/12/30 10:31:21;;;;;;;40.03;28.63;;;22.20;51.80;;;22.69;36.44;95770.97;4982781;28;20446;-57
2022/12/30 10:33:50;;;;;;;38.77;28.87;;;22.20;54.00;;;22.95;35.41;95764.97;4981771;28;20494;-56
2022/12/30 10:36:23;;;;;;;47.60;31.30;;;22.40;53.30;;;23.36;35.69;95758.03;4983466;28;20447;-58
2022/12/30 10:38:50;;;;;;;48.10;30.50;;;22.70;53.40;;;23.90;35.01;95756.47;4979738;28;21023;-60
2022/12/30 10:41:30;;;;;;;44.10;30.70;;;23.10;53.30;;;24.51;34.38;95753.72;4982641;28;20450;-58
2022/12/30 10:44:04;;;;;;;47.17;32.20;;;23.70;52.30;;;25.10;32.92;95755.78;4984119;28;20812;-59
2022/12/30 10:46:45;;;;;;;44.50;30.60;;;24.20;50.90;;;25.55;32.59;95745.19;4982538;28;20451;-59
2022/12/30 10:49:34;;;;;;;43.20;31.80;;;24.70;50.20;;;26.04;32.13;95746.47;4979774;28;20462;-57
2022/12/30 10:52:03;;;;;;;50.33;32.33;;;25.20;49.70;;;26.53;32.01;95738.66;4983137;28;21413;-57
2022/12/30 10:54:31;;;;;;;49.43;32.90;;;25.70;49.00;;;26.80;30.21;95739.31;4984701;28;20478;-55
2022/12/30 10:56:58;;;;;;;57.27;31.97;;;26.00;44.90;;;26.91;29.86;95736.94;4980980;28;20474;-56
2022/12/30 10:59:26;;;;;;;52.53;31.30;;;26.20;44.70;;;26.98;30.61;95732.31;4981141;28;20984;-57
2022/12/30 11:01:59;;;;;;;45.67;30.47;;;26.30;46.20;;;27.05;29.97;95725.00;4979588;28;20455;-55
2022/12/30 11:04:35;;;;;;;45.67;31.30;;;26.40;44.80;;;27.18;30.28;95714.03;4979586;28;20448;-58
2022/12/30 11:07:05;;;;;;;46.70;31.50;;;26.50;45.50;;;27.33;29.44;95718.31;4981171;28;20474;-54
2022/12/30 11:09:32;;;;;;;47.57;31.47;;;26.70;43.10;;;27.31;28.38;95712.25;4980140;28;20455;-57
2022/12/30 11:14:46;;;;;;;46.87;30.03;;;26.80;44.10;;;27.13;29.93;95703.09;4977473;28;20507;-57
2022/12/30 11:17:23;;;;;;;41.33;28.07;;;26.80;43.90;;;27.40;29.74;95699.31;4985139;28;21013;-57
2022/12/30 11:19:52;;;;;;;41.07;28.07;;;26.90;44.10;;;27.62;29.10;95696.97;4982662;28;20438;-55
2022/12/30 11:22:21;;;;;;;37.73;26.73;;;27.20;43.50;;;27.50;29.67;95699.63;4979807;28;20482;-57